Map

Track Data

SID SEASON NUMBER BASIN SUBBASIN NAME ISO_TIME NATURE LAT LON WMO_WIND WMO_PRES WMO_AGENCY TRACK_TYPE DIST2LAND LANDFALL IFLAG USA_AGENCY USA_ATCF_ID USA_LAT USA_LON USA_RECORD USA_STATUS USA_WIND USA_PRES USA_SSHS USA_R34_NE USA_R34_SE USA_R34_SW USA_R34_NW USA_R50_NE USA_R50_SE USA_R50_SW USA_R50_NW USA_R64_NE USA_R64_SE USA_R64_SW USA_R64_NW USA_POCI USA_ROCI USA_RMW USA_EYE TOKYO_LAT TOKYO_LON TOKYO_GRADE TOKYO_WIND TOKYO_PRES TOKYO_R50_DIR TOKYO_R50_LONG TOKYO_R50_SHORT TOKYO_R30_DIR TOKYO_R30_LONG TOKYO_R30_SHORT TOKYO_LAND CMA_LAT CMA_LON CMA_CAT CMA_WIND CMA_PRES HKO_LAT HKO_LON HKO_CAT HKO_WIND HKO_PRES NEWDELHI_LAT NEWDELHI_LON NEWDELHI_GRADE NEWDELHI_WIND NEWDELHI_PRES NEWDELHI_CI NEWDELHI_DP NEWDELHI_POCI REUNION_LAT REUNION_LON REUNION_TYPE REUNION_WIND REUNION_PRES REUNION_TNUM REUNION_CI REUNION_RMW REUNION_R34_NE REUNION_R34_SE REUNION_R34_SW REUNION_R34_NW REUNION_R50_NE REUNION_R50_SE REUNION_R50_SW REUNION_R50_NW REUNION_R64_NE REUNION_R64_SE REUNION_R64_SW REUNION_R64_NW BOM_LAT BOM_LON BOM_TYPE BOM_WIND BOM_PRES BOM_TNUM BOM_CI BOM_RMW BOM_R34_NE BOM_R34_SE BOM_R34_SW BOM_R34_NW BOM_R50_NE BOM_R50_SE BOM_R50_SW BOM_R50_NW BOM_R64_NE BOM_R64_SE BOM_R64_SW BOM_R64_NW BOM_ROCI BOM_POCI BOM_EYE BOM_POS_METHOD BOM_PRES_METHOD NADI_LAT NADI_LON NADI_CAT NADI_WIND NADI_PRES WELLINGTON_LAT WELLINGTON_LON WELLINGTON_WIND WELLINGTON_PRES DS824_LAT DS824_LON DS824_STAGE DS824_WIND DS824_PRES TD9636_LAT TD9636_LON TD9636_STAGE TD9636_WIND TD9636_PRES TD9635_LAT TD9635_LON TD9635_WIND TD9635_PRES TD9635_ROCI NEUMANN_LAT NEUMANN_LON NEUMANN_CLASS NEUMANN_WIND NEUMANN_PRES MLC_LAT MLC_LON MLC_CLASS MLC_WIND MLC_PRES USA_GUST BOM_GUST BOM_GUST_PER REUNION_GUST REUNION_GUST_PER USA_SEAHGT USA_SEARAD_NE USA_SEARAD_SE USA_SEARAD_SW USA_SEARAD_NW STORM_SPEED STORM_DIR
1956032S13057 1956 12 SI MM NOT_NAMED 1956-02-01 06:00:00 NR -13.4000 57.1000 reunion main 739 739 _____O________ -1 -13.4000 57.1000 99 9.90000 1 0
1956032S13057 1956 12 SI MM NOT_NAMED 1956-02-01 09:00:00 NR -13.3920 57.1261 main 739 739 _____P________ -1 -13.3920 57.1261 99 0 67
1956032S13057 1956 12 SI MM NOT_NAMED 1956-02-01 12:00:00 NR -13.3848 57.1437 main 739 739 _____P________ -1 -13.3848 57.1437 99 0 0
1956032S13057 1956 12 SI MM NOT_NAMED 1956-02-01 15:00:00 NR -13.3791 57.1445 main 739 739 _____P________ -1 -13.3791 57.1445 99 0 0
1956032S13057 1956 12 SI MM NOT_NAMED 1956-02-01 18:00:00 NR -13.3757 57.1200 main 739 739 _____P________ -1 -13.3757 57.1200 99 1 273
1956032S13057 1956 12 SI MM NOT_NAMED 1956-02-01 21:00:00 NR -13.3754 57.0617 main 739 729 _____P________ -1 -13.3754 57.0617 99 2 269
1956032S13057 1956 12 SI MM NOT_NAMED 1956-02-02 00:00:00 NR -13.3789 56.9613 main 729 708 _____P________ -1 -13.3789 56.9613 99 2 267
1956032S13057 1956 12 SI MM NOT_NAMED 1956-02-02 03:00:00 NR -13.3868 56.8102 main 708 691 _____P________ -1 -13.3868 56.8102 99 4 224
1956032S13057 1956 12 SI MM NOT_NAMED 1956-02-02 06:00:00 TS -13.6571 56.6857 reunion main 688 654 O____O___OO___ jtwc_sh SH181956 -14.0000 56.8000 -1 -13.4000 56.6000 99 9.90000 -14.0000 56.8000 TC 25 -14.0000 56.8000 7 6 224
1956032S13057 1956 12 SI MM NOT_NAMED 1956-02-02 09:00:00 TS -13.7987 56.4017 main 654 620 P____P___PP___ SH181956 -14.0601 56.4501 -1 -13.4192 56.3260 99 -14.0601 56.4501 TC 25 -14.0347 56.4564 7 6 249
1956032S13057 1956 12 SI MM NOT_NAMED 1956-02-02 12:00:00 TS -13.8909 56.0711 main 620 578 O____P___OP___ jtwc_sh SH181956 -14.1000 56.1000 -1 -13.4463 55.9985 99 -14.1000 56.1000 TC 25 -14.0653 56.1102 7 7 257
1956032S13057 1956 12 SI MM NOT_NAMED 1956-02-02 15:00:00 TS -13.9466 55.7226 main 578 544 P____P___PP___ SH181956 -14.1074 55.7500 -1 -13.4834 55.6317 99 -14.1074 55.7500 TC 25 -14.0883 55.7589 7 7 264
1956032S13057 1956 12 SI MM NOT_NAMED 1956-02-02 18:00:00 TS -13.9582 55.3599 main 544 502 O____P___OO___ jtwc_sh SH181956 -14.1000 55.4000 -1 -13.5328 55.2395 99 -14.1000 55.4000 TC 25 -14.1000 55.4000 1 7 268
1956032S13057 1956 12 SI MM NOT_NAMED 1956-02-02 21:00:00 TS -13.9739 54.9958 main 502 461 P____P___PP___ SH181956 -14.0999 55.0575 -1 -13.5967 54.8362 99 -14.0999 55.0575 TC 25 -14.0989 55.0320 1 7 267
1956032S13057 1956 12 SI MM NOT_NAMED 1956-02-03 00:00:00 TS -13.9925 54.6233 main 461 430 O____P___OP___ jtwc_sh SH181956 -14.1000 54.7000 -1 -13.6776 54.4358 99 -14.1000 54.7000 TC 25 -14.0923 54.6573 1 7 267
1956032S13057 1956 12 SI MM NOT_NAMED 1956-02-03 03:00:00 TS -14.0131 54.2328 main 420 389 P____P___PP___ SH181956 -14.0925 54.3000 -1 -13.7778 54.0524 99 -14.0925 54.3000 TC 25 -14.0896 54.2789 1 8 266
1956032S13057 1956 12 SI MM NOT_NAMED 1956-02-03 06:00:00 TS -14.0500 53.8500 reunion main 389 345 O____O___OO___ jtwc_sh SH181956 -14.1000 53.9000 -1 -13.9000 53.7000 99 9.90000 -14.1000 53.9000 TC 25 -14.1000 53.9000 1 7 262
1956032S13057 1956 12 SI MM NOT_NAMED 1956-02-03 09:00:00 TS -14.1097 53.5116 main 345 311 P____P___PP___ SH181956 -14.1424 53.5500 -1 -14.0386 53.4335 99 -14.1424 53.5500 TC 25 -14.1153 53.5127 1 7 258
1956032S13057 1956 12 SI MM NOT_NAMED 1956-02-03 12:00:00 TS -14.1867 53.1799 main 311 277 O____P___OP___ jtwc_sh SH181956 -14.2000 53.2000 -1 -14.1994 53.1925 99 -14.2000 53.2000 TC 25 -14.1475 53.1273 1 7 257
1956032S13057 1956 12 SI MM NOT_NAMED 1956-02-03 15:00:00 TS -14.2678 52.8313 main 267 233 P____P___PP___ SH181956 -14.2425 52.8000 -1 -14.3802 52.9719 99 -14.2425 52.8000 TC 25 -14.2059 52.7533 1 7 255
1956032S13057 1956 12 SI MM NOT_NAMED 1956-02-03 18:00:00 TS -14.3696 52.4917 main 233 198 O____P___OO___ jtwc_sh SH181956 -14.3000 52.4000 -1 -14.5785 52.7668 99 -14.3000 52.4000 TC 25 -14.3000 52.4000 1 7 251
1956032S13057 1956 12 SI MM NOT_NAMED 1956-02-03 21:00:00 TS -14.4856 52.1703 main 198 164 P____P___PP___ SH181956 -14.3700 52.0274 -1 -14.7920 52.5721 99 -14.3700 52.0274 TC 25 -14.4106 52.0541 1 7 245
1956032S13057 1956 12 SI MM NOT_NAMED 1956-02-04 00:00:00 TS -14.6446 51.8788 main 164 126 O____P___OP___ jtwc_sh SH181956 -14.5000 51.7000 -1 -15.0184 52.3827 99 -14.5000 51.7000 TC 25 -14.5600 51.7325 1 7 235
1956032S13057 1956 12 SI MM NOT_NAMED 1956-02-04 03:00:00 TS -14.8586 51.6196 main 122 97 P____P___PP___ SH181956 -14.7125 51.4200 -1 -15.2552 52.1937 99 -14.7125 51.4200 TC 25 -14.7544 51.4447 1 7 224
1956032S13057 1956 12 SI MM NOT_NAMED 1956-02-04 06:00:00 TS -15.1250 51.4000 reunion main 97 75 O____O___OO___ jtwc_sh SH181956 -15.0000 51.2000 -1 -15.5000 52.0000 99 9.90000 -15.0000 51.2000 TC 25 -15.0000 51.2000 1 7 214
1956032S13057 1956 12 SI MM NOT_NAMED 1956-02-04 09:00:00 TS -15.4368 51.2105 main 75 68 P____P___PP___ SH181956 -15.3350 51.0349 -1 -15.7738 51.7613 99 -15.3350 51.0349 TC 25 -15.3035 51.0107 1 7 208
1956032S13057 1956 12 SI MM NOT_NAMED 1956-02-04 12:00:00 TS -15.7793 51.0451 main 68 67 O____P___OP___ jtwc_sh SH181956 -15.7000 50.9000 -1 -16.0624 51.5181 99 -15.7000 50.9000 TC 25 -15.6547 50.8622 1 8 205
1956032S13057 1956 12 SI MM NOT_NAMED 1956-02-04 15:00:00 TS -16.1213 50.8767 main 72 67 P____P___PP___ SH181956 -16.0500 50.7500 -1 -16.3568 51.2745 99 -16.0500 50.7500 TC 25 -16.0286 50.7326 1 8 205
1956032S13057 1956 12 SI MM NOT_NAMED 1956-02-04 18:00:00 TS -16.4620 50.7087 main 77 77 O____P___OO___ jtwc_sh SH181956 -16.4000 50.6000 -1 -16.6479 51.0347 99 -16.4000 50.6000 TC 25 -16.4000 50.6000 1 8 205
1956032S13057 1956 12 SI MM NOT_NAMED 1956-02-04 21:00:00 TS -16.8015 50.5496 main 74 67 P____P___PP___ SH181956 -16.7575 50.4574 -1 -16.9268 50.8030 99 -16.7575 50.4574 TC 25 -16.7642 50.4806 1 7 205
1956032S13057 1956 12 SI MM NOT_NAMED 1956-02-05 00:00:00 TS -17.1253 50.3827 main 72 69 O____P___OP___ jtwc_sh SH181956 -17.1000 50.3000 -1 -17.1844 50.5838 99 -17.1000 50.3000 TC 25 -17.1167 50.3471 1 7 208
1956032S13057 1956 12 SI MM NOT_NAMED 1956-02-05 03:00:00 TS -17.4268 50.2090 main 79 52 P____P___PP___ SH181956 -17.4298 50.1449 -1 -17.4118 50.3813 99 -17.4298 50.1449 TC 25 -17.4359 50.1650 1 7 215
1956032S13057 1956 12 SI MM NOT_NAMED 1956-02-05 06:00:00 TS -17.6750 49.9750 reunion main 52 23 O____O___OO___ jtwc_sh SH181956 -17.7000 49.9000 -1 -17.6000 50.2000 99 9.90000 -17.7000 49.9000 TC 25 -17.7000 49.9000 1 7 232
1956032S13057 1956 12 SI MM NOT_NAMED 1956-02-05 09:00:00 TS -17.8485 49.6330 main 15 0 P____P___PP___ SH181956 -17.8800 49.4950 -1 -17.7426 50.0432 99 -17.8800 49.4950 TC 25 -17.8912 49.4990 1 8 248
1956032S13057 1956 12 SI MM NOT_NAMED 1956-02-05 12:00:00 TS -17.9672 49.2316 main 0 0 O____P___OP___ jtwc_sh SH181956 -18.0000 49.0000 -1 -17.8431 49.9090 99 -18.0000 49.0000 TC 25 -18.0259 49.0174 1 8 254
1956032S13057 1956 12 SI MM NOT_NAMED 1956-02-05 15:00:00 TS -18.0650 48.8203 main 0 0 P____P___PP___ SH181956 -18.1150 48.4925 -1 -17.9075 49.7942 99 -18.1150 48.4925 TC 25 -18.1224 48.5021 1 8 258
1956032S13057 1956 12 SI MM NOT_NAMED 1956-02-05 18:00:00 TS -18.1355 48.4239 main 0 0 O____P___OO___ jtwc_sh SH181956 -18.2000 48.0000 -1 -17.9420 49.6958 99 -18.2000 48.0000 TC 25 -18.2000 48.0000 1 7 260
1956032S13057 1956 12 SI MM NOT_NAMED 1956-02-05 21:00:00 TS -18.1811 48.0925 main 0 0 P____P___PP___ SH181956 -18.2498 47.5849 -1 -17.9525 49.6104 99 -18.2498 47.5849 TC 25 -18.2724 47.5900 1 7 262
1956032S13057 1956 12 SI MM NOT_NAMED 1956-02-06 00:00:00 TS -18.2381 47.6667 main 0 0 O____P___OP___ jtwc_sh SH181956 -18.3000 47.2000 -1 -17.9450 49.5348 99 -18.3000 47.2000 TC 25 -18.3341 47.1990 1 9 261
1956032S13057 1956 12 SI MM NOT_NAMED 1956-02-06 03:00:00 TS -18.3246 47.1875 main 0 0 P____P___PP___ SH181956 -18.3849 46.8074 -1 -17.9255 49.4657 99 -18.3849 46.8074 TC 25 -18.4037 46.8087 1 10 258
1956032S13057 1956 12 SI MM NOT_NAMED 1956-02-06 06:00:00 TS -18.4538 46.6308 reunion main 0 0 O____O___OO___ jtwc_sh SH181956 -18.5000 46.4000 -1 -17.9000 49.4000 99 9.90000 -18.5000 46.4000 TC 25 -18.5000 46.4000 1 12 255
1956032S13057 1956 12 SI MM NOT_NAMED 1956-02-06 09:00:00 TS -18.6359 45.9588 main 0 0 P________PP___ SH181956 -18.6349 45.9649 -1 99 -18.6349 45.9649 TC 25 -18.6380 45.9465 1 11 252
1956032S13057 1956 12 SI MM NOT_NAMED 1956-02-06 12:00:00 TS -18.8016 45.4908 main 0 0 O________OP___ jtwc_sh SH181956 -18.8000 45.5000 -1 99 -18.8000 45.5000 TC 25 -18.8049 45.4724 1 10 249
1956032S13057 1956 12 SI MM NOT_NAMED 1956-02-06 15:00:00 TS -18.9931 44.9957 main 0 0 P________PP___ SH181956 -18.9925 45.0000 -1 99 -18.9925 45.0000 TC 25 -18.9942 44.9870 1 10 247
1956032S13057 1956 12 SI MM NOT_NAMED 1956-02-06 18:00:00 TS -19.2000 44.5000 main 0 0 O________OO___ jtwc_sh SH181956 -19.2000 44.5000 -1 99 -19.2000 44.5000 TC 25 -19.2000 44.5000 1 10 246
1956032S13057 1956 12 SI MM NOT_NAMED 1956-02-06 21:00:00 TS -19.3986 44.0214 main 38 38 P________PP___ SH181956 -19.3923 44.0498 -1 99 -19.3923 44.0498 TC 25 -19.4111 43.9646 1 10 245
1956032S13057 1956 12 SI MM NOT_NAMED 1956-02-07 00:00:00 TS -19.6119 43.5461 main 92 92 O________OP___ jtwc_sh SH181956 -19.6000 43.6000 -1 99 -19.6000 43.6000 TC 25 -19.6358 43.4383 1 10 244
1956032S13057 1956 12 SI MM NOT_NAMED 1956-02-07 03:00:00 TS -19.8560 43.0311 main 132 132 P________PP___ SH181956 -19.8502 43.0627 -1 99 -19.8502 43.0627 TC 25 -19.8674 42.9678 1 10 241
1956032S13057 1956 12 SI MM NOT_NAMED 1956-02-07 06:00:00 TS -20.1000 42.6000 main 156 156 O________OO___ jtwc_sh SH181956 -20.1000 42.6000 -1 -20.1000 42.6000 TC 25 -20.1000 42.6000 1 8 235
1956032S13057 1956 12 SI MM NOT_NAMED 1956-02-07 09:00:00 TS -20.3052 42.3417 main 175 167 P________PP___ SH181956 -20.2998 42.3248 -1 -20.2998 42.3248 TC 25 -20.3161 42.3753 1 5 221
1956032S13057 1956 12 SI MM NOT_NAMED 1956-02-07 12:00:00 TS -20.5114 42.2189 main 168 155 O________OP___ jtwc_sh SH181956 -20.5000 42.2000 -1 -20.5000 42.2000 TC 25 -20.5341 42.2567 1 5 198
1956032S13057 1956 12 SI MM NOT_NAMED 1956-02-07 15:00:00 TS -20.7483 42.1832 main 155 141 P________PP___ SH181956 -20.7425 42.1699 -1 -20.7425 42.1699 TC 25 -20.7601 42.2099 1 5 183
1956032S13057 1956 12 SI MM NOT_NAMED 1956-02-07 18:00:00 TS -21.0000 42.2000 main 141 136 O________OO___ jtwc_sh SH181956 -21.0000 42.2000 -1 -21.0000 42.2000 TC 25 -21.0000 42.2000 1 5 0
1956032S13057 1956 12 SI MM NOT_NAMED 1956-02-07 21:00:00 TS -21.2476 42.1994 main 136 126 P________PP___ SH181956 -21.2425 42.2000 -1 -21.2425 42.2000 TC 25 -21.2578 42.1981 1 5 0
1956032S13057 1956 12 SI MM NOT_NAMED 1956-02-08 00:00:00 TS -21.5101 42.1993 main 126 112 O________OP___ jtwc_sh SH181956 -21.5000 42.2000 -1 -21.5000 42.2000 TC 25 -21.5303 42.1978 1 6 0
1956032S13057 1956 12 SI MM NOT_NAMED 1956-02-08 03:00:00 TS -21.7976 42.1995 main 112 103 P________PP___ SH181956 -21.7900 42.2000 -1 -21.7900 42.2000 TC 25 -21.8127 42.1986 1 6 0
1956032S13057 1956 12 SI MM NOT_NAMED 1956-02-08 06:00:00 TS -22.1000 42.2000 main 103 O________OO___ jtwc_sh SH181956 -22.1000 42.2000 -1 -22.1000 42.2000 TC 25 -22.1000 42.2000 1 6 0

About IBTrACS Database

This database is a web-friendly format of International Best Track Archive for Climate Stewardship (IBTrACS), a global best track data archive curated by NOAA dating back to 1842.

Updated: 2021-12-01